< < Back
Terminal Aerodrome Forecast


Current Version              Previous Versions:   1  2  3  4  5  6  7  8  9  

Terminal Aerodrome Forecast

759
FTUS42 KFFC 180500
TAFMCN
TAF
KMCN 180520Z 1806/1906 08007KT P6SM BKN045
     FM180800 05008KT P6SM BKN025
     FM181100 05012KT 5SM SHRA OVC014
     FM181500 05014G24KT 3SM SHRA BR OVC008
     FM190200 03018G28KT 2SM SHRA BR OVC008=



Latest METAR

733
SAUS80 KWBC 180800 RRA
MTRMCN
METAR KMCN 180753Z AUTO 05005KT 10SM SCT110 13/08 A3026 RMK AO2 SLP243
T01330078 TSNO


USA.gov is the U.S. government's official web portal to all federal, state and local government web resources and services.